7NC weather

Donald's Air Park Inc. Airport
Plymouth, North Carolina, United States

Public forecast

Using degrees Fahrenheit for public forecast. Weather courtesy of forecast.io.

Closest aviation weather report (METAR) to Donald's Air Park Inc. Airport

Closest report is Northeastern Regional Airport, 18.4 nm (34.0 km) NNE. Retrieved 2019/10/18 02:35 UTC (0 seconds ago):

KEDE 180235Z AUTO 29005KT 10SM CLR 15/08 A2987 RMK AO2 T01450075

Closest aviation forecast (TAF) to Donald's Air Park Inc. Airport

Closest forecast is Pitt Greenville Airport, 35.4 nm (65.5 km) W. Retrieved 2019-10-18 00:30 UTC (2 hours ago):

TAF KPGV 172329Z 1800/1824 34005KT P6SM SKC TEMPO 1808/1812 3SM BR AMD LTD TO CLD VIS AND WIND